createdAt,value
2022-11-14T00:01:31.081Z,66.59
2022-11-14T00:04:16.630Z,66.13
2022-11-14T00:07:02.428Z,66.19
2022-11-14T00:09:47.857Z,65.77
2022-11-14T00:12:33.380Z,65.73
2022-11-14T00:15:19.651Z,65.77
2022-11-14T00:18:05.068Z,66.07
2022-11-14T00:20:52.124Z,65.77
2022-11-14T00:23:38.138Z,65.98
2022-11-14T00:26:23.866Z,66.21
2022-11-14T00:29:11.930Z,66.27
2022-11-14T00:31:57.998Z,66.42
2022-11-14T00:34:43.968Z,66.18
2022-11-14T00:37:30.012Z,66.05
2022-11-14T00:40:16.104Z,65.58
2022-11-14T00:43:01.790Z,65.52
2022-11-14T00:45:48.139Z,65.65
2022-11-14T00:48:33.715Z,65.74
2022-11-14T00:51:19.776Z,65.49
2022-11-14T00:54:05.458Z,65.80
2022-11-14T00:56:50.970Z,65.54
2022-11-14T00:59:36.912Z,65.58
2022-11-14T01:02:23.527Z,65.54
2022-11-14T01:05:09.038Z,65.67
2022-11-14T01:07:55.142Z,65.54
2022-11-14T01:10:46.303Z,65.14
2022-11-14T01:13:32.193Z,65.54
2022-11-14T01:16:17.734Z,65.51
2022-11-14T01:19:04.412Z,65.50
2022-11-14T01:21:50.159Z,65.43
2022-11-14T01:24:36.234Z,65.62
2022-11-14T01:27:21.687Z,65.70
2022-11-14T01:30:08.080Z,65.83
2022-11-14T01:32:53.494Z,65.78
2022-11-14T01:35:38.928Z,65.87
2022-11-14T01:38:24.855Z,66.01
2022-11-14T01:41:14.116Z,65.70
2022-11-14T01:44:00.172Z,65.86
2022-11-14T01:46:51.710Z,66.19
2022-11-14T01:49:45.550Z,66.04
2022-11-14T01:52:35.898Z,66.22
2022-11-14T01:55:21.959Z,66.42
2022-11-14T01:58:07.870Z,66.56
2022-11-14T02:00:53.731Z,66.70
2022-11-14T02:03:42.552Z,66.88
2022-11-14T02:06:30.776Z,67.04
2022-11-14T02:09:16.285Z,66.97
2022-11-14T02:12:04.669Z,67.16
2022-11-14T02:14:54.891Z,67.22
2022-11-14T02:17:42.961Z,67.30
2022-11-14T02:20:33.290Z,67.26
2022-11-14T02:23:27.802Z,66.89
2022-11-14T02:26:21.497Z,66.94
2022-11-14T02:29:09.920Z,66.44
2022-11-14T02:31:55.433Z,66.46
2022-11-14T02:34:41.464Z,66.39
2022-11-14T02:37:27.444Z,66.33
2022-11-14T02:40:12.998Z,66.47
2022-11-14T02:42:59.032Z,66.55
2022-11-14T02:45:44.951Z,66.25
2022-11-14T02:48:30.878Z,66.20
2022-11-14T02:51:16.648Z,66.10
2022-11-14T02:54:02.672Z,66.04
2022-11-14T02:56:48.449Z,66.24
2022-11-14T02:59:34.108Z,66.28
2022-11-14T03:02:19.662Z,66.45
2022-11-14T03:05:05.817Z,66.48
2022-11-14T03:07:55.460Z,66.17
2022-11-14T03:10:41.375Z,66.49
2022-11-14T03:13:29.534Z,66.45
2022-11-14T03:16:15.329Z,66.41
2022-11-14T03:19:00.952Z,66.13
2022-11-14T03:21:46.908Z,66.22
2022-11-14T03:24:32.414Z,65.99
2022-11-14T03:27:18.882Z,65.85
2022-11-14T03:30:04.956Z,66.06
2022-11-14T03:32:50.319Z,66.03
2022-11-14T03:35:36.128Z,66.02
2022-11-14T03:38:22.168Z,65.86
2022-11-14T03:41:08.414Z,65.92
2022-11-14T03:43:54.424Z,65.97
2022-11-14T03:46:39.897Z,65.87
2022-11-14T03:49:25.369Z,65.62
2022-11-14T03:52:12.243Z,65.73
2022-11-14T03:54:57.673Z,66.06
2022-11-14T03:57:43.602Z,65.95
2022-11-14T04:00:29.325Z,66.11
2022-11-14T04:03:15.220Z,66.54
2022-11-14T04:06:00.778Z,66.91
2022-11-14T04:08:47.171Z,66.91
2022-11-14T04:11:33.290Z,67.18
2022-11-14T04:14:19.053Z,67.48
2022-11-14T04:17:04.463Z,67.51
2022-11-14T04:19:49.853Z,67.38
2022-11-14T04:22:35.373Z,67.13
2022-11-14T04:25:20.809Z,66.83
2022-11-14T04:28:06.480Z,66.74
2022-11-14T04:30:51.997Z,66.87
2022-11-14T04:33:37.417Z,66.82
2022-11-14T04:36:22.923Z,66.63
2022-11-14T04:39:08.332Z,66.51
2022-11-14T04:41:54.175Z,66.31
2022-11-14T04:44:39.754Z,66.22
2022-11-14T04:47:25.551Z,66.17
2022-11-14T04:50:11.161Z,66.14
2022-11-14T04:52:57.250Z,66.18
2022-11-14T04:55:44.522Z,66.10
2022-11-14T04:58:30.556Z,65.97
2022-11-14T05:01:16.409Z,65.78
2022-11-14T05:04:02.391Z,65.83
2022-11-14T05:06:48.076Z,65.80
2022-11-14T05:09:33.630Z,65.87
2022-11-14T05:12:19.079Z,65.96
2022-11-14T05:15:04.717Z,65.81
2022-11-14T05:17:50.431Z,65.78
2022-11-14T05:20:35.880Z,65.89
2022-11-14T05:23:23.979Z,66.03
2022-11-14T05:26:12.014Z,66.06
2022-11-14T05:28:57.484Z,66.15
2022-11-14T05:31:43.204Z,65.98
2022-11-14T05:34:29.045Z,66.03
2022-11-14T05:37:14.773Z,65.95
2022-11-14T05:40:00.772Z,66.17
2022-11-14T05:42:46.743Z,66.11
2022-11-14T05:45:32.950Z,66.08
2022-11-14T05:48:18.535Z,66.06
2022-11-14T05:51:05.604Z,66.10
2022-11-14T05:53:51.167Z,65.99
2022-11-14T05:56:36.927Z,65.97
2022-11-14T05:59:22.319Z,66.01
2022-11-14T06:02:08.375Z,66.33
2022-11-14T06:04:54.008Z,65.98
2022-11-14T06:07:39.839Z,66.12
2022-11-14T06:10:25.661Z,66.02
2022-11-14T06:13:11.293Z,66.29
2022-11-14T06:16:01.580Z,66.19
2022-11-14T06:18:48.134Z,66.35
2022-11-14T06:21:33.773Z,66.53
2022-11-14T06:24:19.209Z,66.70
2022-11-14T06:27:04.770Z,66.84
2022-11-14T06:29:50.237Z,66.97
2022-11-14T06:32:36.133Z,67.17
2022-11-14T06:35:21.768Z,67.41
2022-11-14T06:38:07.279Z,67.31
2022-11-14T06:40:53.443Z,67.46
2022-11-14T06:43:41.254Z,67.43
2022-11-14T06:46:27.033Z,67.56
2022-11-14T06:49:12.640Z,67.47
2022-11-14T06:51:58.126Z,67.37
2022-11-14T06:54:43.591Z,67.19
2022-11-14T06:57:28.982Z,67.44
2022-11-14T07:00:15.008Z,67.44
2022-11-14T07:03:00.568Z,67.24
2022-11-14T07:05:46.580Z,67.13
2022-11-14T07:08:33.697Z,66.73
2022-11-14T07:11:22.047Z,66.63
2022-11-14T07:14:09.354Z,66.50
2022-11-14T07:16:55.035Z,66.60
2022-11-14T07:19:40.600Z,66.55
2022-11-14T07:22:26.105Z,66.38
2022-11-14T07:25:12.151Z,66.58
2022-11-14T07:27:58.582Z,66.68
2022-11-14T07:30:44.434Z,66.73
2022-11-14T07:33:30.742Z,66.75
2022-11-14T07:36:16.782Z,66.80
2022-11-14T07:39:03.265Z,67.00
2022-11-14T07:41:48.953Z,67.15
2022-11-14T07:44:34.655Z,67.12
2022-11-14T07:47:20.010Z,67.35
2022-11-14T07:50:05.835Z,67.18
2022-11-14T07:52:55.482Z,67.09
2022-11-14T07:55:41.191Z,67.34
2022-11-14T07:58:27.079Z,67.43
2022-11-14T08:01:14.418Z,67.33
2022-11-14T08:04:00.401Z,67.38
2022-11-14T08:06:46.082Z,67.51
2022-11-14T08:09:32.096Z,67.48
2022-11-14T08:12:17.623Z,67.60
2022-11-14T08:15:03.551Z,67.77
2022-11-14T08:17:49.011Z,67.99
2022-11-14T08:20:34.941Z,68.01
2022-11-14T08:23:20.544Z,68.24
2022-11-14T08:26:06.713Z,68.35
2022-11-14T08:28:53.755Z,68.36
2022-11-14T08:31:39.463Z,68.51
2022-11-14T08:34:25.963Z,68.67
2022-11-14T08:37:11.521Z,68.93
2022-11-14T08:39:57.419Z,68.92
2022-11-14T08:42:43.203Z,69.14
2022-11-14T08:45:29.831Z,68.91
2022-11-14T08:48:15.967Z,69.17
2022-11-14T08:51:04.515Z,69.17
2022-11-14T08:53:50.153Z,69.11
2022-11-14T08:56:35.916Z,69.27
2022-11-14T08:59:21.321Z,69.36
2022-11-14T09:02:07.190Z,69.41
2022-11-14T09:04:52.691Z,69.52
2022-11-14T09:07:38.433Z,69.70
2022-11-14T09:10:25.556Z,69.83
2022-11-14T09:13:11.144Z,70.27
2022-11-14T09:15:57.049Z,70.69
2022-11-14T09:18:43.092Z,71.12
2022-11-14T09:21:28.733Z,71.36
2022-11-14T09:24:14.790Z,71.66
2022-11-14T09:27:00.782Z,71.85
2022-11-14T09:29:46.687Z,71.64
2022-11-14T09:32:32.532Z,71.49
2022-11-14T09:35:18.279Z,71.59
2022-11-14T09:38:09.616Z,71.48
2022-11-14T09:41:26.601Z,71.18
2022-11-14T09:44:37.317Z,70.76
2022-11-14T09:47:33.214Z,70.52
2022-11-14T09:50:26.144Z,70.40
2022-11-14T09:53:44.176Z,70.22
2022-11-14T09:56:29.922Z,70.61
2022-11-14T09:59:16.405Z,70.52
2022-11-14T10:02:28.901Z,69.97
2022-11-14T10:05:33.522Z,70.42
2022-11-14T10:08:32.916Z,69.57
2022-11-14T10:11:47.209Z,69.29
2022-11-14T10:14:41.845Z,69.06
2022-11-14T10:17:54.875Z,68.66
2022-11-14T10:21:00.422Z,68.06
2022-11-14T10:24:15.565Z,67.28
2022-11-14T10:27:07.584Z,69.23
2022-11-14T10:30:16.280Z,69.50
2022-11-14T10:33:17.136Z,68.34
2022-11-14T10:36:25.367Z,68.46
2022-11-14T10:39:29.229Z,68.98
2022-11-14T10:42:22.943Z,68.17
2022-11-14T10:45:29.681Z,67.13
2022-11-14T10:48:30.512Z,66.81
2022-11-14T10:51:34.966Z,67.63
2022-11-14T10:54:35.570Z,66.65
2022-11-14T10:57:22.739Z,67.75
2022-11-14T11:00:17.852Z,67.38
2022-11-14T11:03:03.766Z,67.50
2022-11-14T11:05:52.009Z,67.14
2022-11-14T11:08:44.638Z,66.60
2022-11-14T11:11:31.022Z,67.26
2022-11-14T11:14:19.424Z,66.98
2022-11-14T11:17:11.010Z,66.00
2022-11-14T11:20:35.158Z,66.32
2022-11-14T11:23:27.130Z,66.08
2022-11-14T11:26:27.680Z,65.25
2022-11-14T11:29:13.413Z,66.93
2022-11-14T11:31:59.640Z,67.06
2022-11-14T11:34:45.686Z,66.74
2022-11-14T11:37:37.358Z,65.49
2022-11-14T11:40:28.497Z,64.27
2022-11-14T11:43:40.538Z,65.31
2022-11-14T11:46:47.001Z,63.36
2022-11-14T11:49:51.759Z,63.26
2022-11-14T11:52:53.086Z,63.40
2022-11-14T11:55:46.228Z,60.88
2022-11-14T11:58:43.137Z,61.30
2022-11-14T12:01:29.475Z,63.02
2022-11-14T12:04:14.944Z,62.92
2022-11-14T12:07:09.741Z,63.18
2022-11-14T12:10:10.216Z,62.97
2022-11-14T12:13:33.866Z,62.54
2022-11-14T12:16:32.078Z,62.09
2022-11-14T12:19:39.196Z,61.30
2022-11-14T12:22:54.270Z,61.21
2022-11-14T12:26:28.611Z,61.06
2022-11-14T12:29:29.180Z,60.78
2022-11-14T12:32:22.993Z,60.54
2022-11-14T12:35:18.257Z,60.53
2022-11-14T12:38:13.214Z,61.31
2022-11-14T12:41:01.828Z,61.70
2022-11-14T12:43:47.600Z,62.60
2022-11-14T12:47:05.581Z,62.00
2022-11-14T12:49:53.703Z,62.70
2022-11-14T12:52:46.453Z,62.41
2022-11-14T12:55:32.121Z,63.48
2022-11-14T12:58:44.587Z,62.34
2022-11-14T13:01:30.461Z,62.23
2022-11-14T13:04:26.109Z,61.57
2022-11-14T13:07:51.146Z,61.34
2022-11-14T13:10:39.628Z,61.24
2022-11-14T13:13:25.904Z,62.00
2022-11-14T13:16:30.879Z,58.58
2022-11-14T13:19:21.747Z,60.55
2022-11-14T13:22:10.824Z,59.29
2022-11-14T13:24:59.653Z,59.47
2022-11-14T13:28:06.536Z,60.13
2022-11-14T13:31:16.214Z,58.51
2022-11-14T13:34:27.697Z,59.54
2022-11-14T13:37:22.765Z,59.46
2022-11-14T13:40:15.028Z,59.81
2022-11-14T13:43:26.788Z,59.90
2022-11-14T13:46:24.845Z,60.41
2022-11-14T13:49:39.341Z,60.23
2022-11-14T13:52:32.359Z,59.15
2022-11-14T13:55:27.998Z,60.00
2022-11-14T13:58:39.497Z,59.06
2022-11-14T14:01:38.843Z,58.51
2022-11-14T14:04:39.215Z,58.34
2022-11-14T14:07:55.616Z,58.45
2022-11-14T14:10:57.618Z,58.93
2022-11-14T14:13:58.865Z,58.20
2022-11-14T14:17:19.734Z,58.29
2022-11-14T14:20:32.089Z,58.67
2022-11-14T14:23:44.374Z,59.42
2022-11-14T14:26:44.454Z,59.16
2022-11-14T14:30:03.694Z,59.40
2022-11-14T14:33:07.497Z,59.83
2022-11-14T14:35:54.215Z,60.33
2022-11-14T14:38:39.630Z,60.54
2022-11-14T14:41:30.951Z,60.50
2022-11-14T14:44:26.647Z,60.18
2022-11-14T14:47:40.086Z,60.40
2022-11-14T14:50:39.689Z,60.46
2022-11-14T14:53:28.796Z,61.08
2022-11-14T14:56:23.340Z,60.87
2022-11-14T14:59:37.759Z,60.95
2022-11-14T15:02:25.654Z,61.25
2022-11-14T15:05:11.801Z,61.61
2022-11-14T15:08:00.557Z,61.40
2022-11-14T15:10:46.470Z,61.53
2022-11-14T15:13:32.919Z,61.62
2022-11-14T15:16:20.040Z,61.54
2022-11-14T15:19:06.023Z,61.69
2022-11-14T15:22:02.655Z,61.64
2022-11-14T15:25:27.456Z,61.90
2022-11-14T15:28:22.509Z,61.87
2022-11-14T15:31:17.399Z,62.08
2022-11-14T15:34:21.362Z,62.20
2022-11-14T15:37:10.583Z,62.10
2022-11-14T15:40:16.420Z,62.26
2022-11-14T15:43:40.286Z,62.17
2022-11-14T15:46:39.968Z,62.35
2022-11-14T15:49:27.132Z,62.29
2022-11-14T15:52:22.970Z,62.55
2022-11-14T15:55:20.628Z,62.61
2022-11-14T15:58:27.909Z,62.88
2022-11-14T16:01:24.439Z,62.83
2022-11-14T16:04:17.534Z,63.05
2022-11-14T16:07:03.761Z,63.05
2022-11-14T16:09:50.048Z,63.01
2022-11-14T16:12:35.537Z,63.10
2022-11-14T16:15:21.541Z,63.05
2022-11-14T16:18:07.098Z,63.29
2022-11-14T16:20:52.747Z,63.24
2022-11-14T16:23:38.931Z,63.19
2022-11-14T16:26:24.733Z,63.52
2022-11-14T16:29:10.298Z,63.59
2022-11-14T16:31:56.108Z,63.79
2022-11-14T16:34:42.138Z,63.74
2022-11-14T16:37:27.574Z,63.96
2022-11-14T16:40:16.255Z,64.04
2022-11-14T16:43:02.122Z,64.32
2022-11-14T16:45:47.800Z,64.46
2022-11-14T16:48:33.911Z,64.47
2022-11-14T16:51:46.738Z,64.45
2022-11-14T16:54:25.160Z,64.56
2022-11-14T16:57:10.535Z,64.48
2022-11-14T16:59:56.361Z,64.73
2022-11-14T17:02:42.200Z,64.90
2022-11-14T17:05:27.638Z,64.96
2022-11-14T17:08:13.196Z,65.08
2022-11-14T17:10:58.662Z,64.92
2022-11-14T17:13:44.549Z,64.87
2022-11-14T17:16:30.056Z,65.05
2022-11-14T17:19:15.991Z,65.16
2022-11-14T17:22:02.025Z,65.32
2022-11-14T17:24:47.718Z,65.46
2022-11-14T17:27:34.090Z,65.57
2022-11-14T17:30:20.085Z,65.45
2022-11-14T17:33:06.213Z,65.50
2022-11-14T17:35:52.134Z,65.54
2022-11-14T17:38:38.407Z,65.72
2022-11-14T17:41:24.947Z,65.49
2022-11-14T17:44:10.697Z,65.64
2022-11-14T17:46:56.304Z,65.64
2022-11-14T17:49:41.799Z,65.64
2022-11-14T17:52:27.478Z,65.66
2022-11-14T17:55:12.993Z,65.66
2022-11-14T17:57:58.434Z,65.74
2022-11-14T18:00:44.115Z,65.75
2022-11-14T18:03:29.588Z,65.85
2022-11-14T18:06:19.583Z,66.17
2022-11-14T18:09:05.299Z,66.09
2022-11-14T18:11:51.102Z,66.16
2022-11-14T18:14:36.552Z,66.02
2022-11-14T18:17:22.216Z,66.05
2022-11-14T18:20:08.635Z,66.04
2022-11-14T18:22:54.362Z,65.86
2022-11-14T18:25:39.824Z,65.86
2022-11-14T18:28:25.993Z,65.62
2022-11-14T18:31:11.987Z,65.73
2022-11-14T18:33:58.112Z,65.62
2022-11-14T18:36:43.730Z,65.87
2022-11-14T18:39:29.215Z,65.82
2022-11-14T18:42:15.098Z,65.80
2022-11-14T18:45:01.137Z,66.19
2022-11-14T18:47:46.559Z,66.53
2022-11-14T18:50:32.357Z,66.78
2022-11-14T18:53:18.305Z,67.06
2022-11-14T18:56:05.272Z,67.30
2022-11-14T18:58:56.913Z,67.62
2022-11-14T19:01:43.409Z,67.41
2022-11-14T19:04:28.963Z,67.48
2022-11-14T19:07:14.417Z,67.35
2022-11-14T19:10:00.357Z,67.10
2022-11-14T19:12:48.897Z,67.15
2022-11-14T19:15:34.880Z,66.81
2022-11-14T19:18:20.257Z,66.64
2022-11-14T19:21:05.953Z,66.59
2022-11-14T19:23:51.815Z,66.63
2022-11-14T19:26:37.493Z,66.48
2022-11-14T19:29:23.182Z,66.33
2022-11-14T19:32:09.152Z,66.54
2022-11-14T19:34:54.784Z,66.24
2022-11-14T19:37:40.216Z,66.17
2022-11-14T19:40:25.658Z,66.16
2022-11-14T19:43:11.428Z,65.96
2022-11-14T19:46:01.474Z,66.13
2022-11-14T19:48:47.741Z,65.86
2022-11-14T19:51:33.678Z,65.88
2022-11-14T19:54:19.153Z,65.92
2022-11-14T19:57:04.625Z,66.05
2022-11-14T19:59:50.328Z,66.16
2022-11-14T20:02:36.003Z,66.19
2022-11-14T20:05:21.576Z,66.19
2022-11-14T20:08:07.068Z,66.46
2022-11-14T20:10:59.514Z,66.50
2022-11-14T20:13:45.335Z,66.46
2022-11-14T20:16:36.037Z,66.29
2022-11-14T20:19:21.638Z,66.22
2022-11-14T20:22:07.439Z,66.17
2022-11-14T20:24:53.157Z,66.11
2022-11-14T20:27:38.694Z,66.25
2022-11-14T20:30:24.216Z,66.17
2022-11-14T20:33:10.699Z,66.40
2022-11-14T20:36:01.382Z,66.27
2022-11-14T20:38:47.544Z,66.27
2022-11-14T20:41:33.042Z,66.54
2022-11-14T20:44:18.746Z,66.53
2022-11-14T20:47:08.485Z,66.67
2022-11-14T20:49:56.697Z,66.73
2022-11-14T20:52:44.700Z,66.70
2022-11-14T20:55:30.460Z,66.52
2022-11-14T20:58:16.011Z,66.73
2022-11-14T21:01:01.967Z,66.57
2022-11-14T21:03:48.623Z,66.57
2022-11-14T21:06:34.273Z,66.57
2022-11-14T21:09:19.674Z,66.88
2022-11-14T21:12:05.155Z,67.00
2022-11-14T21:14:50.857Z,66.92
2022-11-14T21:17:36.493Z,66.91
2022-11-14T21:20:21.954Z,67.01
2022-11-14T21:23:07.619Z,66.99
2022-11-14T21:26:01.237Z,67.64
2022-11-14T21:28:49.492Z,67.35
2022-11-14T21:31:41.843Z,67.51
2022-11-14T21:34:27.520Z,67.08
2022-11-14T21:37:13.444Z,67.09
2022-11-14T21:39:59.275Z,67.10
2022-11-14T21:42:44.759Z,67.22
2022-11-14T21:45:30.883Z,67.27
2022-11-14T21:48:16.411Z,67.28
2022-11-14T21:51:22.402Z,68.10
2022-11-14T21:54:09.540Z,67.92
2022-11-14T21:56:54.944Z,68.01
2022-11-14T21:59:40.440Z,68.47
2022-11-14T22:02:25.856Z,68.78
2022-11-14T22:05:11.141Z,69.06
2022-11-14T22:07:56.777Z,69.02
2022-11-14T22:10:42.714Z,69.10
2022-11-14T22:13:30.135Z,68.91
2022-11-14T22:16:16.158Z,69.20
2022-11-14T22:19:05.232Z,68.97
2022-11-14T22:21:51.199Z,69.08
2022-11-14T22:24:36.984Z,69.04
2022-11-14T22:27:22.550Z,68.98
2022-11-14T22:30:08.897Z,69.04
2022-11-14T22:32:54.566Z,69.00
2022-11-14T22:35:40.093Z,68.83
2022-11-14T22:38:28.683Z,68.75
2022-11-14T22:41:25.297Z,68.66
2022-11-14T22:44:14.598Z,68.47
2022-11-14T22:47:00.148Z,68.42
2022-11-14T22:49:46.060Z,68.38
2022-11-14T22:52:31.821Z,68.32
2022-11-14T22:55:18.363Z,68.20
2022-11-14T22:58:04.206Z,67.99
2022-11-14T23:00:50.735Z,67.95
2022-11-14T23:03:36.697Z,67.91
2022-11-14T23:06:23.969Z,67.79
2022-11-14T23:09:09.776Z,67.72
2022-11-14T23:11:55.177Z,67.59
2022-11-14T23:14:40.599Z,67.53
2022-11-14T23:17:26.001Z,67.26
2022-11-14T23:20:16.277Z,67.22
2022-11-14T23:23:03.249Z,66.89
2022-11-14T23:25:48.961Z,66.83
2022-11-14T23:28:35.179Z,66.72
2022-11-14T23:31:21.247Z,66.51
2022-11-14T23:34:06.934Z,66.64
2022-11-14T23:36:52.676Z,66.72
2022-11-14T23:39:38.150Z,66.79
2022-11-14T23:42:23.522Z,66.74
2022-11-14T23:45:09.376Z,67.03
2022-11-14T23:47:55.106Z,67.11
2022-11-14T23:50:40.785Z,67.30
2022-11-14T23:53:26.572Z,67.35
2022-11-14T23:56:13.646Z,67.57
2022-11-14T23:58:59.066Z,67.63
